Time;durP1;ratioP1;P1;durP2;ratioP2;P2;SDS_P1;SDS_P2;PMS_P1;PMS_P2;Temp;Humidity;BMP_temperature;BMP_pressure;BME280_temperature;BME280_humidity;BME280_pressure;Samples;Min_cycle;Max_cycle;Signal;HPM_P1;HPM_P2
2022/08/31 00:03:54;;;;;;;4.13;1.60;;;;;;;21.54;45.78;101954.63;5067693;28;20056;-62
2022/08/31 00:06:22;;;;;;;1.60;1.20;;;;;;;21.51;45.84;101952.44;5066448;28;20518;-62
2022/08/31 00:08:50;;;;;;;4.82;1.67;;;;;;;21.50;46.33;101956.25;5066176;28;20427;-62
2022/08/31 00:11:26;;;;;;;4.72;1.55;;;;;;;21.47;46.26;101954.06;5066708;28;20076;-62
2022/08/31 00:13:56;;;;;;;3.50;1.15;;;;;;;21.46;46.22;101955.97;5066247;28;20135;-62
2022/08/31 00:16:26;;;;;;;2.33;1.38;;;;;;;21.45;46.40;101957.06;5066144;28;20052;-62
2022/08/31 00:18:54;;;;;;;3.33;1.27;;;;;;;21.44;46.26;101964.47;5068640;28;20487;-62
2022/08/31 00:21:25;;;;;;;1.75;1.20;;;;;;;21.43;46.26;101968.28;5086464;28;20436;-62
2022/08/31 00:23:54;;;;;;;1.75;1.20;;;;;;;21.43;46.51;101968.28;5071787;28;20049;-62
2022/08/31 00:26:23;;;;;;;2.97;1.20;;;;;;;21.41;46.51;101967.72;5066230;28;20049;-62
2022/08/31 00:28:52;;;;;;;2.88;1.50;;;;;;;21.40;46.74;101962.53;5066290;28;20056;-62
2022/08/31 00:31:20;;;;;;;2.85;1.17;;;;;;;21.38;46.66;101953.75;5066179;28;20088;-62
2022/08/31 00:33:51;;;;;;;2.28;1.35;;;;;;;21.37;46.72;101963.06;5084761;28;20079;-62
2022/08/31 00:36:21;;;;;;;4.15;1.40;;;;;;;21.35;46.71;101957.03;5086221;28;20048;-62
2022/08/31 00:38:50;;;;;;;2.15;1.40;;;;;;;21.32;46.75;101952.91;5082241;28;20091;-62
2022/08/31 00:41:20;;;;;;;4.07;1.40;;;;;;;21.34;47.05;101958.13;5066153;28;20083;-62
2022/08/31 00:43:51;;;;;;;7.03;1.38;;;;;;;21.31;47.11;101955.91;5066892;28;20072;-62
2022/08/31 00:46:22;;;;;;;2.67;1.23;;;;;;;21.27;47.61;101952.91;5085683;28;20079;-62
2022/08/31 00:48:59;;;;;;;2.45;1.27;;;;;;;21.28;47.47;101954.53;5085817;28;20048;-62
2022/08/31 00:51:29;;;;;;;3.85;1.20;;;;;;;21.28;47.48;101959.19;5086124;28;20088;-62
2022/08/31 00:53:57;;;;;;;1.85;1.50;;;;;;;21.26;47.32;101953.97;5077429;28;20072;-62
2022/08/31 00:56:25;;;;;;;3.25;1.73;;;;;;;21.27;47.45;101952.91;5065592;28;20075;-62
2022/08/31 00:58:54;;;;;;;1.48;1.23;;;;;;;21.25;47.36;101946.88;5065621;28;20069;-62
2022/08/31 01:01:22;;;;;;;2.75;1.23;;;;;;;21.24;47.41;101950.69;5065716;28;20053;-62
2022/08/31 01:03:52;;;;;;;3.22;1.50;;;;;;;21.23;47.41;101949.03;5065621;28;20048;-62
2022/08/31 01:06:21;;;;;;;4.22;1.33;;;;;;;21.22;47.45;101952.88;5065786;28;20075;-62
2022/08/31 01:08:51;;;;;;;4.00;1.42;;;;;;;21.23;47.67;101959.16;5075619;28;20045;-62
2022/08/31 01:11:20;;;;;;;3.58;1.30;;;;;;;21.21;47.75;101948.47;5085848;28;20076;-62
2022/08/31 01:13:49;;;;;;;2.00;1.35;;;;;;;21.20;47.97;101954.19;5066239;28;20057;-62
2022/08/31 01:16:21;;;;;;;4.22;1.67;;;;;;;21.19;48.05;101949.81;5065485;28;20052;-62
2022/08/31 01:18:53;;;;;;;2.05;1.08;;;;;;;21.18;47.82;101948.16;5065840;28;20052;-61
2022/08/31 01:21:27;;;;;;;2.40;1.20;;;;;;;21.15;47.81;101945.97;5065602;28;20080;-62
2022/08/31 01:23:58;;;;;;;2.55;1.30;;;;;;;21.16;48.10;101961.28;5065045;28;20045;-62
2022/08/31 01:26:29;;;;;;;2.10;1.42;;;;;;;21.14;47.96;101953.34;5065363;28;20060;-62
2022/08/31 01:29:02;;;;;;;3.65;1.50;;;;;;;21.13;47.99;101951.69;5065371;28;20080;-62
2022/08/31 01:31:32;;;;;;;1.45;1.20;;;;;;;21.14;47.99;101961.53;5065594;28;20056;-62
2022/08/31 01:34:01;;;;;;;1.88;1.25;;;;;;;21.13;47.83;101955.25;5065303;28;20056;-62
2022/08/31 01:36:30;;;;;;;5.05;1.35;;;;;;;21.11;48.06;101951.97;5065559;28;20063;-62
2022/08/31 01:38:59;;;;;;;1.98;1.30;;;;;;;20.98;48.00;101927.84;5065182;28;20056;-62
2022/08/31 01:41:27;;;;;;;2.95;1.35;;;;;;;21.10;48.05;101952.22;5065323;28;20091;-62
2022/08/31 01:43:55;;;;;;;6.88;1.50;;;;;;;21.09;47.91;101948.66;5065022;28;20057;-63
2022/08/31 01:46:24;;;;;;;2.60;1.60;;;;;;;21.07;48.08;101953.56;5084277;28;20087;-62
2022/08/31 01:48:52;;;;;;;1.52;1.20;;;;;;;21.05;48.10;101947.56;5074077;28;20099;-63
2022/08/31 01:51:21;;;;;;;2.17;1.30;;;;;;;21.05;48.18;101946.72;5065494;28;20052;-63
2022/08/31 01:53:51;;;;;;;1.95;1.42;;;;;;;21.05;48.17;101957.66;5065092;28;20076;-62
2022/08/31 01:56:23;;;;;;;4.28;1.10;;;;;;;21.03;48.17;101952.47;5065366;28;20072;-63
2022/08/31 01:58:51;;;;;;;3.20;1.40;;;;;;;21.02;48.20;101961.75;5065239;28;20052;-62
2022/08/31 02:01:21;;;;;;;2.78;1.20;;;;;;;21.01;48.22;101964.75;5064981;28;20053;-62
2022/08/31 02:04:01;;;;;;;2.08;1.30;;;;;;;21.00;48.18;101961.19;5064988;28;20125;-63
2022/08/31 02:06:29;;;;;;;3.78;1.30;;;;;;;20.97;48.16;101961.72;5065162;28;20109;-63
2022/08/31 02:08:57;;;;;;;1.58;1.20;;;;;;;20.96;48.50;101968.28;5068370;28;20060;-62
2022/08/31 02:11:26;;;;;;;4.35;1.42;;;;;;;20.95;48.11;101974.81;5068875;28;20077;-62
2022/08/31 02:13:54;;;;;;;3.78;1.88;;;;;;;20.95;48.34;101971.28;5068003;28;20126;-62
2022/08/31 02:16:22;;;;;;;3.03;1.42;;;;;;;20.94;48.43;101972.34;5068498;28;20072;-63
2022/08/31 02:18:50;;;;;;;1.88;1.27;;;;;;;20.92;48.44;101971.78;5068808;28;20057;-62
2022/08/31 02:21:18;;;;;;;3.45;1.10;;;;;;;20.90;48.27;101963.88;5068427;28;20076;-62
2022/08/31 02:23:46;;;;;;;2.50;1.50;;;;;;;20.90;48.45;101971.25;5068208;28;20084;-62
2022/08/31 02:26:14;;;;;;;1.65;1.20;;;;;;;20.90;48.31;101968.50;5067887;28;20517;-63
2022/08/31 02:28:43;;;;;;;2.42;1.40;;;;;;;20.79;48.33;101957.53;5068285;28;20544;-63
2022/08/31 02:31:10;;;;;;;2.33;1.40;;;;;;;20.87;48.32;101972.59;5068339;28;20494;-62
2022/08/31 02:33:38;;;;;;;1.75;1.13;;;;;;;20.85;48.64;101973.94;5067784;28;20121;-63
2022/08/31 02:36:07;;;;;;;3.10;1.88;;;;;;;20.83;48.47;101979.66;5068354;28;20075;-62
2022/08/31 02:38:38;;;;;;;1.88;1.27;;;;;;;20.83;48.60;101979.66;5067980;28;20048;-63
2022/08/31 02:41:06;;;;;;;4.55;1.20;;;;;;;20.83;48.51;101978.84;5068395;28;20072;-62
2022/08/31 02:43:34;;;;;;;2.25;1.10;;;;;;;20.82;48.59;101977.19;5071440;28;20104;-63
2022/08/31 02:46:03;;;;;;;2.20;1.38;;;;;;;20.82;48.51;101977.19;5088085;28;20055;-63
2022/08/31 02:48:31;;;;;;;1.45;1.17;;;;;;;20.79;48.46;101976.66;5087987;28;20048;-62
2022/08/31 02:51:05;;;;;;;3.65;1.30;;;;;;;20.79;48.47;101979.41;5088241;28;20062;-63
2022/08/31 02:53:33;;;;;;;2.83;1.35;;;;;;;20.78;48.38;101979.66;5074786;28;20049;-63
2022/08/31 02:56:00;;;;;;;3.60;1.40;;;;;;;20.77;48.50;101978.84;5068008;28;20048;-62
2022/08/31 02:58:28;;;;;;;1.70;1.25;;;;;;;20.76;48.58;101979.09;5067882;28;20095;-63
2022/08/31 03:00:56;;;;;;;2.30;1.42;;;;;;;20.75;48.62;101982.91;5067802;28;20113;-63
2022/08/31 03:03:25;;;;;;;3.75;1.20;;;;;;;20.73;48.53;101977.72;5067770;28;20053;-63
2022/08/31 03:05:53;;;;;;;3.83;1.20;;;;;;;20.75;48.55;101982.91;5067917;28;20045;-63
2022/08/31 03:08:20;;;;;;;2.08;1.25;;;;;;;20.73;48.52;101983.19;5067188;28;20055;-63
2022/08/31 03:10:48;;;;;;;4.00;1.30;;;;;;;20.73;48.65;101974.16;5067761;28;20079;-63
2022/08/31 03:13:16;;;;;;;2.15;1.20;;;;;;;20.70;48.69;101969.22;5067520;28;20509;-63
2022/08/31 03:15:44;;;;;;;3.15;1.55;;;;;;;20.69;48.79;101962.09;5067334;28;20060;-62
2022/08/31 03:18:12;;;;;;;1.65;1.30;;;;;;;20.68;48.74;101969.47;5084243;28;20049;-63
2022/08/31 03:20:41;;;;;;;3.97;1.63;;;;;;;20.67;48.71;101964.28;5087686;28;20079;-63
2022/08/31 03:23:11;;;;;;;6.82;1.33;;;;;;;20.66;48.93;101966.19;5087161;28;20060;-62
2022/08/31 03:25:38;;;;;;;1.90;1.30;;;;;;;20.63;48.86;101955.78;5084601;28;20079;-62
2022/08/31 03:28:07;;;;;;;2.22;1.30;;;;;;;20.62;48.91;101950.59;5067246;28;20048;-63
2022/08/31 03:30:34;;;;;;;2.55;1.30;;;;;;;20.61;49.05;101954.41;5067225;28;20076;-63
2022/08/31 03:33:02;;;;;;;1.60;1.13;;;;;;;20.60;48.99;101958.22;5067264;28;20053;-62
2022/08/31 03:35:31;;;;;;;2.90;1.27;;;;;;;20.59;49.07;101957.38;5067039;28;20072;-63
2022/08/31 03:38:01;;;;;;;2.67;1.50;;;;;;;20.59;49.00;101967.50;5067107;28;20045;-63
2022/08/31 03:40:29;;;;;;;4.60;1.13;;;;;;;20.57;49.08;101961.47;5083073;28;20075;-63
2022/08/31 03:42:57;;;;;;;5.22;1.40;;;;;;;20.54;49.04;101973.75;5087144;28;20076;-63
2022/08/31 03:45:26;;;;;;;1.98;1.10;;;;;;;20.52;49.27;101961.44;5086817;28;20045;-62
2022/08/31 03:47:54;;;;;;;3.95;1.45;;;;;;;20.50;49.28;101963.59;5086757;28;20076;-62
2022/08/31 03:50:22;;;;;;;1.80;1.15;;;;;;;20.48;49.44;101955.66;5068312;28;20052;-63
2022/08/31 03:52:49;;;;;;;2.38;1.25;;;;;;;20.46;49.50;101955.94;5066536;28;20475;-63
2022/08/31 03:55:19;;;;;;;1.63;1.15;;;;;;;20.44;49.55;101963.56;5066620;28;20416;-62
2022/08/31 03:57:46;;;;;;;1.65;1.13;;;;;;;20.44;49.52;101974.47;5066542;28;20080;-63
2022/08/31 04:00:15;;;;;;;2.35;1.50;;;;;;;20.41;49.42;101972.28;5066404;28;20054;-63
2022/08/31 04:02:43;;;;;;;1.45;1.10;;;;;;;20.41;49.36;101979.63;5066506;28;20056;-63
2022/08/31 04:05:12;;;;;;;1.65;1.17;;;;;;;20.40;49.39;101975.25;5066406;28;20132;-62
2022/08/31 04:07:41;;;;;;;3.00;1.52;;;;;;;20.41;49.41;101979.63;5066208;28;20079;-63
2022/08/31 04:10:10;;;;;;;3.17;1.52;;;;;;;20.40;49.30;101981.53;5066598;28;20060;-63
2022/08/31 04:12:41;;;;;;;1.80;1.30;;;;;;;20.38;49.31;101982.84;5066387;28;20044;-63
2022/08/31 04:15:10;;;;;;;1.90;1.42;;;;;;;20.37;49.08;101978.47;5066286;28;20045;-62
2022/08/31 04:17:38;;;;;;;3.10;1.50;;;;;;;20.38;49.36;101974.66;5066054;28;20075;-63
2022/08/31 04:20:07;;;;;;;3.47;1.45;;;;;;;20.34;49.29;101981.72;5066526;28;20083;-63
2022/08/31 04:22:34;;;;;;;3.15;1.35;;;;;;;20.32;49.50;101970.25;5065963;28;20585;-63
2022/08/31 04:25:02;;;;;;;1.98;1.40;;;;;;;20.31;49.38;101974.06;5066066;28;20087;-62
2022/08/31 04:27:30;;;;;;;4.05;1.58;;;;;;;20.29;49.21;101979.78;5066036;28;20091;-63
2022/08/31 04:29:59;;;;;;;4.30;1.25;;;;;;;20.28;49.32;101982.75;5065833;28;20076;-63
2022/08/31 04:32:26;;;;;;;2.15;1.38;;;;;;;20.26;49.37;101985.75;5066172;28;20052;-63
2022/08/31 04:34:56;;;;;;;1.27;1.15;;;;;;;20.25;49.22;101991.47;5066078;28;20073;-62
2022/08/31 04:37:24;;;;;;;3.58;1.30;;;;;;;20.24;49.31;101973.44;5065675;28;20500;-63
2022/08/31 04:39:55;;;;;;;2.20;1.40;;;;;;;20.23;49.14;101989.00;5066094;28;20103;-62
2022/08/31 04:42:26;;;;;;;2.28;1.30;;;;;;;20.21;49.17;101980.25;5066152;28;20059;-63
2022/08/31 04:44:53;;;;;;;2.63;1.30;;;;;;;20.19;49.31;101987.88;5065785;28;20072;-63
2022/08/31 04:47:22;;;;;;;2.72;1.40;;;;;;;20.18;49.28;101990.84;5065592;28;20087;-63
2022/08/31 04:49:50;;;;;;;2.35;1.50;;;;;;;20.16;49.25;101985.66;5065225;28;20052;-63
2022/08/31 04:52:18;;;;;;;3.05;1.75;;;;;;;20.16;49.14;101985.66;5064674;28;20045;-62
2022/08/31 04:54:51;;;;;;;3.45;1.40;;;;;;;20.13;49.15;101991.63;5065666;28;20049;-62
2022/08/31 04:57:18;;;;;;;2.92;1.60;;;;;;;20.13;49.08;101999.81;5065139;28;20049;-62
2022/08/31 04:59:46;;;;;;;1.88;1.13;;;;;;;20.11;49.14;101991.88;5064933;28;20080;-63
2022/08/31 05:02:14;;;;;;;2.95;1.92;;;;;;;20.10;49.02;101992.97;5065618;28;20048;-63
2022/08/31 05:04:43;;;;;;;2.03;1.20;;;;;;;20.08;48.97;101995.13;5065513;28;20049;-63
2022/08/31 05:07:11;;;;;;;2.15;1.20;;;;;;;20.08;49.05;101995.13;5065578;28;20498;-61
2022/08/31 05:09:38;;;;;;;5.07;1.42;;;;;;;20.06;48.87;101999.19;5065430;28;20129;-61
2022/08/31 05:12:06;;;;;;;1.85;1.38;;;;;;;19.97;48.91;101981.63;5065692;28;20056;-61
2022/08/31 05:14:34;;;;;;;1.95;1.40;;;;;;;20.03;48.95;101994.25;5065457;28;20049;-62
2022/08/31 05:17:05;;;;;;;3.03;1.33;;;;;;;20.03;48.72;101994.25;5065464;28;20057;-61
2022/08/31 05:19:41;;;;;;;3.60;1.30;;;;;;;19.99;48.61;101991.22;5065521;28;20084;-61
2022/08/31 05:22:10;;;;;;;2.30;1.50;;;;;;;19.98;48.71;101996.94;5065401;28;20056;-62
2022/08/31 05:24:38;;;;;;;2.55;1.30;;;;;;;19.96;48.64;101991.72;5064960;28;20040;-62
2022/08/31 05:27:06;;;;;;;1.52;1.30;;;;;;;19.94;48.72;101996.63;5065499;28;20091;-62
2022/08/31 05:29:34;;;;;;;3.35;1.40;;;;;;;19.93;48.66;102005.88;5065347;28;20087;-62
2022/08/31 05:32:02;;;;;;;5.13;1.48;;;;;;;19.92;48.58;102008.88;5065536;28;20068;-63
2022/08/31 05:34:31;;;;;;;1.85;1.25;;;;;;;19.89;48.49;101999.28;5065219;28;20080;-62
2022/08/31 05:36:59;;;;;;;4.72;1.63;;;;;;;19.89;48.16;102004.75;5065319;28;20088;-62
2022/08/31 05:39:29;;;;;;;1.67;1.30;;;;;;;19.87;48.23;102009.63;5065050;28;20049;-62
2022/08/31 05:41:57;;;;;;;2.63;1.40;;;;;;;19.86;48.16;102010.72;5065727;28;20075;-61
2022/08/31 05:44:25;;;;;;;4.65;1.08;;;;;;;19.83;48.07;102008.50;5069116;28;20049;-62
2022/08/31 05:46:56;;;;;;;3.78;1.40;;;;;;;19.81;48.07;102007.94;5069215;28;20084;-62
2022/08/31 05:49:30;;;;;;;2.33;1.40;;;;;;;19.81;48.06;102007.94;5069162;28;20078;-62
2022/08/31 05:51:59;;;;;;;2.05;1.10;;;;;;;19.80;48.03;102014.47;5068967;28;20391;-62
2022/08/31 05:54:29;;;;;;;1.58;1.08;;;;;;;19.79;47.88;102015.53;5068553;28;20243;-62
2022/08/31 05:56:56;;;;;;;1.42;1.20;;;;;;;19.77;47.92;102013.06;5069141;28;20075;-62
2022/08/31 05:59:28;;;;;;;1.58;1.35;;;;;;;19.76;47.85;102011.41;5069722;28;20059;-62
2022/08/31 06:01:56;;;;;;;3.90;1.63;;;;;;;19.74;47.76;102013.56;5089208;28;20475;-61
2022/08/31 06:04:23;;;;;;;2.25;1.30;;;;;;;19.74;47.79;102020.94;5088802;28;20056;-62
2022/08/31 06:06:52;;;;;;;3.42;1.48;;;;;;;19.76;47.69;102016.06;5085983;28;20048;-62
2022/08/31 06:09:20;;;;;;;3.13;1.40;;;;;;;19.77;47.59;102025.88;5068394;28;20076;-62
2022/08/31 06:11:50;;;;;;;4.50;1.63;;;;;;;19.77;47.43;102025.88;5076159;28;20076;-61
2022/08/31 06:14:18;;;;;;;1.85;1.20;;;;;;;19.77;47.38;102026.72;5088436;28;20536;-62
2022/08/31 06:16:47;;;;;;;1.88;0.93;;;;;;;19.79;47.34;102031.91;5088614;28;20044;-62
2022/08/31 06:19:15;;;;;;;4.78;1.45;;;;;;;19.77;47.37;102020.44;5085972;28;20056;-62
2022/08/31 06:21:44;;;;;;;3.15;1.10;;;;;;;19.82;47.30;102034.13;5068555;28;20122;-61
2022/08/31 06:24:18;;;;;;;1.80;1.08;;;;;;;19.83;47.32;102036.59;5069719;28;20072;-62
2022/08/31 06:26:54;;;;;;;2.90;1.30;;;;;;;19.84;47.25;102031.97;5088597;28;20063;-62
2022/08/31 06:29:30;;;;;;;3.33;1.23;;;;;;;19.87;47.32;102033.38;5088431;28;20091;-62
2022/08/31 06:31:59;;;;;;;4.38;1.23;;;;;;;19.88;47.03;102038.56;5088510;28;20072;-62
2022/08/31 06:34:27;;;;;;;4.35;1.20;;;;;;;19.88;47.07;102038.56;5070863;28;20053;-61
2022/08/31 06:36:55;;;;;;;4.15;1.77;;;;;;;19.90;47.01;102038.31;5068426;28;20057;-62
2022/08/31 06:39:23;;;;;;;3.08;1.10;;;;;;;19.91;46.80;102040.78;5067717;28;20076;-62
2022/08/31 06:41:52;;;;;;;3.85;1.30;;;;;;;19.91;46.89;102035.34;5068256;28;20114;-61
2022/08/31 06:44:21;;;;;;;2.58;1.05;;;;;;;19.92;46.84;102036.97;5067757;28;20049;-61
2022/08/31 06:46:51;;;;;;;2.53;1.00;;;;;;;19.93;46.94;102040.53;5067977;28;20053;-61
2022/08/31 06:49:19;;;;;;;2.33;1.27;;;;;;;19.94;46.93;102043.00;5067817;28;20048;-61
2022/08/31 06:51:47;;;;;;;1.60;1.20;;;;;;;19.96;46.84;102051.75;5068157;28;20045;-61
2022/08/31 06:54:16;;;;;;;2.03;1.40;;;;;;;19.95;46.76;102041.94;5066700;28;20163;-62
2022/08/31 06:57:01;;;;;;;1.90;1.05;;;;;;;19.95;46.82;102044.66;5067791;28;20092;-62
2022/08/31 06:59:29;;;;;;;1.40;1.10;;;;;;;19.98;46.62;102052.34;5066562;28;20061;-62
2022/08/31 07:02:00;;;;;;;5.20;1.30;;;;;;;19.98;46.71;102043.31;5067302;28;20068;-62
2022/08/31 07:04:32;;;;;;;3.50;1.25;;;;;;;19.96;46.69;102043.56;5066819;28;20126;-62
2022/08/31 07:06:59;;;;;;;4.30;1.40;;;;;;;19.99;46.62;102047.69;5067311;28;20426;-62
2022/08/31 07:09:27;;;;;;;4.00;1.55;;;;;;;19.99;46.66;102059.44;5066876;28;20041;-62
2022/08/31 07:11:55;;;;;;;2.05;1.10;;;;;;;19.99;46.85;102058.63;5067322;28;20053;-62
2022/08/31 07:14:26;;;;;;;2.63;0.93;;;;;;;20.00;46.77;102052.06;5079478;28;20158;-62
2022/08/31 07:16:56;;;;;;;2.58;0.93;;;;;;;20.01;46.67;102056.44;5086662;28;20055;-62
2022/08/31 07:19:26;;;;;;;1.63;0.73;;;;;;;20.00;46.60;102058.34;5087018;28;20068;-61
2022/08/31 07:21:56;;;;;;;3.08;1.10;;;;;;;20.00;46.65;102058.34;5078643;28;20045;-62
2022/08/31 07:24:27;;;;;;;3.45;1.20;;;;;;;20.00;46.65;102063.81;5066455;28;20100;-62
2022/08/31 07:26:58;;;;;;;1.55;0.90;;;;;;;19.99;46.73;102062.16;5070736;28;20076;-62
2022/08/31 07:29:29;;;;;;;4.35;1.30;;;;;;;20.00;46.60;102065.72;5087097;28;20056;-62
2022/08/31 07:31:58;;;;;;;7.03;1.42;;;;;;;20.01;46.69;102059.19;5087411;28;20078;-62
2022/08/31 07:34:29;;;;;;;3.70;1.13;;;;;;;19.95;46.62;102052.84;5087087;28;20049;-62
2022/08/31 07:42:38;;;;;;;1.55;1.10;;;;;;;19.98;46.79;102060.50;5066748;28;20048;-62
2022/08/31 07:45:10;;;;;;;3.22;1.52;;;;;;;19.98;46.91;102052.34;5066700;28;20103;-62
2022/08/31 07:47:44;;;;;;;1.75;1.20;;;;;;;19.99;46.80;102070.34;5066828;28;20108;-62
2022/08/31 07:50:15;;;;;;;2.35;1.23;;;;;;;19.98;46.77;102068.72;5066825;28;20071;-62
2022/08/31 07:52:46;;;;;;;1.92;1.10;;;;;;;19.97;46.80;102061.59;5066034;28;20502;-61
2022/08/31 07:55:16;;;;;;;1.92;1.05;;;;;;;19.97;46.89;102064.31;5066184;28;20048;-61
2022/08/31 07:57:45;;;;;;;3.05;1.23;;;;;;;19.96;46.99;102062.69;5066769;28;20105;-61
2022/08/31 08:00:16;;;;;;;13.00;2.00;;;;;;;19.96;46.76;102070.03;5065842;28;20057;-61
2022/08/31 08:02:47;;;;;;;7.95;2.33;;;;;;;19.95;46.80;102065.66;5066796;28;20088;-62
2022/08/31 08:05:24;;;;;;;9.60;1.80;;;;;;;19.95;46.79;102069.22;5065346;28;20052;-62
2022/08/31 08:08:03;;;;;;;7.85;1.65;;;;;;;19.95;46.93;102068.38;5066130;28;20045;-62
2022/08/31 08:10:34;;;;;;;3.70;1.58;;;;;;;19.96;46.97;102078.22;5071695;28;20052;-62
2022/08/31 08:13:03;;;;;;;9.45;1.60;;;;;;;19.95;46.81;102077.41;5066461;28;20438;-62
2022/08/31 08:15:34;;;;;;;8.10;1.40;;;;;;;19.96;47.11;102084.50;5066161;28;20049;-61
2022/08/31 08:18:04;;;;;;;4.03;1.50;;;;;;;19.95;46.99;102079.31;5066374;28;20054;-62
2022/08/31 08:20:35;;;;;;;5.43;1.33;;;;;;;19.96;46.99;102083.69;5066278;28;20064;-62
2022/08/31 08:23:07;;;;;;;3.22;1.88;;;;;;;19.96;47.09;102084.50;5066110;28;20096;-62
2022/08/31 08:25:37;;;;;;;5.07;1.30;;;;;;;19.97;47.17;102088.88;5080409;28;20060;-61
2022/08/31 08:28:06;;;;;;;5.70;2.17;;;;;;;19.98;47.21;102093.25;5086440;28;20052;-61
2022/08/31 08:30:59;;;;;;;3.25;1.50;;;;;;;19.98;47.39;102093.25;5086069;28;20140;-61
2022/08/31 08:33:28;;;;;;;10.60;1.67;;;;;;;20.02;47.13;102101.78;5069139;28;20075;-61
2022/08/31 08:36:01;;;;;;;4.57;1.25;;;;;;;20.03;47.43;102093.31;5066970;28;20080;-61
2022/08/31 08:38:31;;;;;;;4.32;1.45;;;;;;;20.05;47.42;102090.34;5085830;28;20049;-61
2022/08/31 08:41:00;;;;;;;4.65;1.13;;;;;;;20.07;47.37;102091.75;5086196;28;20051;-61
2022/08/31 08:43:32;;;;;;;3.33;1.40;;;;;;;20.08;47.51;102093.38;5086069;28;20083;-61
2022/08/31 08:46:03;;;;;;;4.43;1.20;;;;;;;20.09;47.60;102086.03;5065810;28;20084;-61
2022/08/31 08:48:51;;;;;;;2.70;1.30;;;;;;;20.10;47.57;102091.22;5065660;28;20132;-61
2022/08/31 08:51:31;;;;;;;3.47;1.52;;;;;;;20.11;47.60;102092.06;5065621;28;20049;-62
2022/08/31 08:54:06;;;;;;;3.28;1.85;;;;;;;20.12;47.68;102093.69;5074944;28;20408;-61
2022/08/31 08:56:35;;;;;;;7.07;1.00;;;;;;;20.10;47.56;102084.94;5085731;28;20485;-61
2022/08/31 08:59:03;;;;;;;4.20;1.20;;;;;;;20.13;47.70;102089.91;5085713;28;20091;-61
2022/08/31 09:01:36;;;;;;;2.90;1.02;;;;;;;20.14;47.83;102095.09;5085794;28;20448;-61
2022/08/31 09:04:11;;;;;;;3.50;1.38;;;;;;;20.15;47.83;102085.81;5066111;28;20049;-62
2022/08/31 09:06:53;;;;;;;1.65;0.90;;;;;;;20.17;47.84;102090.22;5065751;28;20089;-61
2022/08/31 09:09:38;;;;;;;2.60;1.30;;;;;;;20.18;47.97;102086.41;5071568;28;20048;-61
2022/08/31 09:12:19;;;;;;;2.20;1.17;;;;;;;20.19;48.00;102082.59;5085821;28;20052;-61
2022/08/31 09:14:58;;;;;;;3.10;1.13;;;;;;;20.20;48.02;102084.25;5083335;28;20052;-61
2022/08/31 09:17:40;;;;;;;1.67;1.10;;;;;;;20.20;47.74;102082.34;5079175;28;20122;-62
2022/08/31 09:20:11;;;;;;;5.80;1.05;;;;;;;20.23;48.15;102090.00;5069519;28;20543;-61
2022/08/31 09:22:47;;;;;;;3.25;1.30;;;;;;;20.23;48.03;102092.75;5069440;28;20049;-61
2022/08/31 09:25:17;;;;;;;2.10;1.20;;;;;;;20.25;48.14;102090.59;5069306;28;20084;-61
2022/08/31 09:27:55;;;;;;;1.70;1.08;;;;;;;20.25;48.19;102081.56;5069731;28;20053;-61
2022/08/31 09:30:39;;;;;;;2.92;1.35;;;;;;;20.25;48.26;102081.56;5069244;28;20065;-61
2022/08/31 09:33:15;;;;;;;5.43;1.40;;;;;;;20.26;48.31;102083.22;5069084;28;20047;-61
2022/08/31 09:35:43;;;;;;;;;;;;;;;20.25;48.30;102087.03;5069487;28;20045;-61
2022/08/31 09:38:27;;;;;;;4.40;1.25;;;;;;;20.26;48.38;102088.66;5069036;28;19921;-61
2022/08/31 09:40:55;;;;;;;4.50;1.40;;;;;;;20.27;48.40;102082.97;5069316;28;20068;-61
2022/08/31 09:43:33;;;;;;;5.05;1.58;;;;;;;20.27;48.41;102082.97;5069206;28;20076;-61
2022/08/31 09:46:06;;;;;;;3.65;1.30;;;;;;;20.28;48.45;102083.78;5069094;28;20048;-61
2022/08/31 09:48:50;;;;;;;8.50;2.55;;;;;;;20.29;48.40;102083.53;5069156;28;20084;-61
2022/08/31 09:51:24;;;;;;;4.53;1.10;;;;;;;20.32;48.61;102082.19;5069024;28;20049;-61
2022/08/31 09:56:54;;;;;;;2.78;1.40;;;;;;;20.39;48.55;102077.38;5069060;28;20044;-61
2022/08/31 09:59:38;;;;;;;3.00;1.38;;;;;;;20.41;48.63;102075.22;5068800;28;20045;-61
2022/08/31 10:02:10;;;;;;;6.00;1.30;;;;;;;20.43;48.54;102062.13;5068878;28;20045;-61
2022/08/31 10:04:51;;;;;;;4.53;1.38;;;;;;;20.44;48.63;102069.25;5068820;28;20077;-61
2022/08/31 10:07:29;;;;;;;4.85;1.50;;;;;;;20.46;48.56;102069.81;5068955;28;20075;-61
2022/08/31 10:10:03;;;;;;;4.75;1.48;;;;;;;20.46;48.70;102062.44;5068512;28;20127;-61
2022/08/31 10:12:40;;;;;;;3.88;1.48;;;;;;;20.49;48.73;102072.03;5068347;28;20049;-61
2022/08/31 10:15:14;;;;;;;2.55;1.45;;;;;;;20.52;49.02;102068.78;5068556;28;20539;-61
2022/08/31 10:17:50;;;;;;;7.53;1.80;;;;;;;20.54;49.14;102063.88;5068520;28;20087;-61
2022/08/31 10:20:21;;;;;;;2.75;1.52;;;;;;;20.58;48.95;102061.44;5068227;28;20064;-61
2022/08/31 10:22:56;;;;;;;2.20;1.40;;;;;;;20.61;49.19;102061.75;5068171;28;20076;-61
2022/08/31 10:25:31;;;;;;;4.78;1.90;;;;;;;20.63;49.06;102061.50;5068389;28;20076;-61
2022/08/31 10:28:08;;;;;;;2.45;1.33;;;;;;;20.64;49.33;102061.25;5067231;28;20475;-61
2022/08/31 10:30:43;;;;;;;3.40;1.60;;;;;;;20.70;49.37;102049.28;5068437;28;20072;-61
2022/08/31 10:33:20;;;;;;;8.35;1.70;;;;;;;20.72;49.13;102068.97;5067976;28;20045;-62
2022/08/31 10:35:54;;;;;;;5.65;1.95;;;;;;;20.74;49.34;102066.78;5068098;28;20052;-61
2022/08/31 10:38:30;;;;;;;3.65;1.73;;;;;;;20.77;49.35;102051.78;5067854;28;20068;-61
2022/08/31 10:41:10;;;;;;;8.30;2.00;;;;;;;20.79;49.63;102052.34;5068283;28;20049;-62
2022/08/31 10:43:44;;;;;;;2.88;1.50;;;;;;;20.84;49.58;102051.53;5068067;28;20542;-62
2022/08/31 10:46:14;;;;;;;5.10;1.88;;;;;;;20.87;49.57;102054.56;5067963;28;20056;-62
2022/08/31 10:48:50;;;;;;;5.07;1.80;;;;;;;20.89;49.20;102049.66;5068144;28;20490;-62
2022/08/31 10:51:25;;;;;;;3.88;1.63;;;;;;;20.90;49.31;102043.13;5068092;28;20049;-62
2022/08/31 10:54:05;;;;;;;7.57;2.47;;;;;;;20.91;49.47;102046.66;5067163;28;20040;-62
2022/08/31 10:56:45;;;;;;;5.88;2.22;;;;;;;20.94;49.59;102051.63;5067779;28;20088;-62
2022/08/31 10:59:22;;;;;;;10.07;2.67;;;;;;;20.97;49.65;102046.44;5067856;28;20076;-62
2022/08/31 11:01:56;;;;;;;4.40;2.03;;;;;;;21.04;49.71;102046.22;5067252;28;20041;-62
2022/08/31 11:04:51;;;;;;;9.27;3.13;;;;;;;21.08;49.62;102050.06;5067857;28;20060;-62
2022/08/31 11:07:33;;;;;;;7.97;2.28;;;;;;;21.10;49.54;102043.25;5067869;28;20091;-62
2022/08/31 11:10:14;;;;;;;8.30;2.88;;;;;;;21.14;49.58;102049.03;5066942;28;20505;-61
2022/08/31 11:12:51;;;;;;;5.07;2.50;;;;;;;21.18;49.53;102046.59;5067599;28;20075;-61
2022/08/31 11:15:37;;;;;;;11.25;3.25;;;;;;;21.21;49.49;102051.53;5067464;28;20045;-61
2022/08/31 11:18:28;;;;;;;8.60;2.65;;;;;;;21.24;49.49;102048.31;5067501;28;20106;-61
2022/08/31 11:21:09;;;;;;;11.80;3.05;;;;;;;21.27;49.52;102051.34;5067529;28;20068;-62
2022/08/31 11:23:53;;;;;;;9.48;2.53;;;;;;;21.32;49.54;102056.00;5067328;28;20091;-62
2022/08/31 11:26:40;;;;;;;5.63;2.08;;;;;;;21.39;49.75;102051.13;5067120;28;20076;-61
2022/08/31 11:29:24;;;;;;;5.75;2.33;;;;;;;21.44;49.77;102049.25;5067201;28;20056;-61
2022/08/31 11:31:53;;;;;;;5.43;2.00;;;;;;;21.51;49.92;102043.53;5067281;28;20076;-61
2022/08/31 11:34:26;;;;;;;6.93;2.10;;;;;;;21.57;49.99;102033.44;5067186;28;20052;-61
2022/08/31 11:36:56;;;;;;;4.15;2.55;;;;;;;21.64;50.38;102034.03;5066844;28;20049;-61
2022/08/31 11:39:39;;;;;;;8.18;2.10;;;;;;;21.71;50.26;102029.94;5065832;28;20049;-62
2022/08/31 11:42:12;;;;;;;4.75;1.88;;;;;;;21.77;49.88;102028.06;5066904;28;20041;-61
2022/08/31 11:45:00;;;;;;;4.70;2.30;;;;;;;21.80;49.37;102035.72;5066976;28;20083;-61
2022/08/31 11:47:36;;;;;;;5.10;1.90;;;;;;;21.83;49.21;102026.16;5066728;28;20069;-61
2022/08/31 11:50:27;;;;;;;6.35;1.88;;;;;;;21.83;49.10;102018.78;5066774;28;20053;-61
2022/08/31 11:52:56;;;;;;;3.72;2.10;;;;;;;21.87;49.04;102019.06;5066288;28;20072;-61
2022/08/31 11:55:27;;;;;;;5.35;2.00;;;;;;;21.88;48.83;102015.22;5066481;28;20077;-61